Terminal Aerodrome Forecast
Issued by NWS North Platte, NE

Home | Current Version | Previous Version | Text Only | Print | Product List | Glossary Off
Versions: 1 2 3 4 5 6 7 8 9 10 11 12 13 14 15 16 17 18 19 20 21 22 23 24

000
FTUS43 KLBF 251300 AAA
TAFVTN
TAF AMD
KVTN 251352Z 2514/2612 33016G23KT P6SM OVC025
      TEMPO 2515/2518 5SM -SN OVC015
     FM251800 36017G30KT P6SM -SN OVC025
     FM252100 36017G30KT P6SM OVC025
     FM260000 36015G20KT P6SM OVC050=

USA.gov is the U.S. government's official web portal to all federal, state and local government web resources and services.